Grants, NM

2:22 PM MST on February 08, 2016 (GMT -0700)
Grants-Milan Municipal | | Change Station
CLOSE
Current Station
Airport
Location: Grants-Milan,
Elevation: 6519 ft
Nearby Weather Stations

Elev 6519 ft 35.17 °N, 107.90 °W | Updated 7 minutes ago

Clear
Clear
56 °F
Feels Like 56 °F
N
15
Wind Variable Wind from North
Gusts 26 mph

Today
High -- | Low -- °F
--% Chance of Precip.
Yesterday
High -- | Low -- °F
Precip. -- in
Pressure 30.42 in
Visibility 10.0 miles
Clouds Clear
Dew Point 16 °F
Humidity 20%
Rainfall 0.00 in
Snow Depth Not available.
7:05 AM 5:46 PM
New Moon, 0% visible
METAR KGNT 082115Z AUTO 35013G23KT 10SM CLR 14/M09 A3042 RMK AO2 T01351091
Pressure 30.42 in
Visibility 10.0 miles
Clouds Clear
Dew Point 16 °F
Humidity 20%
Rainfall 0.00 in
Snow Depth Not available.
7:05 AM 5:46 PM
New Moon, 0% visible
METAR KGNT 082115Z AUTO 35013G23KT 10SM CLR 14/M09 A3042 RMK AO2 T01351091

10-Day Weather Forecast

Almanac

Astronomy

Feb. 08, 2016 Rise Set
Actual Time
Civil Twilight
Nautical Twilight
Astronomical Twilight
Moon
Length of Visible Light
Length of Day
Tomorrow will be .
, % of the Moon is Illuminated

Today's Extremes

State Highs State Lows

Community

WunderPhotos

Upload Photos

1,891,516 photos uploaded!

WunderBlog® & News

Nearby

Air Quality

  Air Quality AQ Index Pollutant
Not available.

Snow Depth

Station Depth Elevation

Earthquake Activity

City Distance Mag. Time & Date
Minimum magnitude displayed is 2.5.

Coastal Water Temperatures

Place Temperature

Stations

Nearby Weather Stations

Station Location Temp. Windchill Dew Point Humidity Wind Precip. Elev Updated Type
                   

Watches & Warnings

There are currently no watches in effect.